Time;durP1;ratioP1;P1;durP2;ratioP2;P2;SDS_P1;SDS_P2;PMS_P1;PMS_P2;Temp;Humidity;BMP_temperature;BMP_pressure;BME280_temperature;BME280_humidity;BME280_pressure;Samples;Min_cycle;Max_cycle;Signal;HPM_P1;HPM_P2
2022/04/13 00:02:06;;;;;;;;;;;;;;;-144.19;72.95;75943.47;4996342;28;19932;-81
2022/04/13 00:04:33;;;;;;;;;;;;;;;-144.19;73.49;75949.38;4996146;28;20253;-81
2022/04/13 00:06:59;;;;;;;;;;;;;;;-144.19;73.87;75957.25;5013869;28;19926;-83
2022/04/13 00:09:25;;;;;;;;;;;;;;;-144.19;73.41;75945.44;5013484;28;19932;-82
2022/04/13 00:11:54;;;;;;;;;;;;;;;-144.19;73.73;75947.41;5013059;28;19933;-83
2022/04/13 00:14:22;;;;;;;;;;;;;;;-144.19;74.43;75947.41;5010338;28;20299;-82
2022/04/13 00:16:50;;;;;;;;;;;;;;;-144.19;73.98;75955.28;5013672;28;20624;-81
2022/04/13 00:19:17;;;;;;;;;;;;;;;-144.19;74.30;75961.19;5012872;28;20209;-82
2022/04/13 00:21:44;;;;;;;;;;;;;;;-144.19;74.11;75961.19;5013802;28;20358;-81
2022/04/13 00:24:12;;;;;;;;;;;;;;;-144.19;75.43;75976.94;4994048;28;19932;-83
2022/04/13 00:26:38;;;;;;;;;;;;;;;-144.19;75.22;75969.06;5013454;28;20007;-82
2022/04/13 00:29:05;;;;;;;;;;;;;;;-144.19;75.56;75980.88;4995156;28;19937;-82
2022/04/13 00:31:31;;;;;;;;;;;;;;;-144.19;76.09;75988.75;5012269;28;20470;-80
2022/04/13 00:33:58;;;;;;;;;;;;;;;-144.19;75.91;75976.94;5011049;28;20392;-80
2022/04/13 00:36:24;;;;;;;;;;;;;;;-144.19;76.19;75996.63;4995694;28;19955;-81
2022/04/13 00:38:50;;;;;;;;;;;;;;;-144.19;77.54;76016.28;5013233;28;19932;-82
2022/04/13 00:41:21;;;;;;;;;;;;;;;-144.19;78.79;76032.03;5012175;28;20008;-85
2022/04/13 00:44:07;;;;;;;;;;;;;;;-144.19;79.90;76047.78;5010265;28;19925;-80
2022/04/13 00:46:34;;;;;;;;;;;;;;;-144.19;83.52;76063.53;5012525;28;19925;-80
2022/04/13 00:49:01;;;;;;;;;;;;;;;-144.19;82.40;76065.50;5012284;28;19932;-80
2022/04/13 00:51:27;;;;;;;;;;;;;;;-144.19;81.93;76065.50;5012295;28;19926;-81
2022/04/13 00:53:55;;;;;;;;;;;;;;;-144.19;82.67;76077.31;5010089;28;19932;-80
2022/04/13 00:56:24;;;;;;;;;;;;;;;-144.19;83.23;76089.13;5012393;28;20331;-79
2022/04/13 00:58:55;;;;;;;;;;;;;;;-144.19;84.29;76100.94;4994124;28;19925;-79
2022/04/13 01:01:23;;;;;;;;;;;;;;;-144.19;83.81;76104.84;5011379;28;20396;-82
2022/04/13 01:03:51;;;;;;;;;;;;;;;-144.19;85.11;76110.75;5024314;22;19983;-82
2022/04/13 01:06:21;;;;;;;;;;;;;;;-144.19;89.49;76142.25;4993754;28;19930;-82
2022/04/13 01:08:48;;;;;;;;;;;;;;;-144.19;87.89;76134.38;5013754;28;19925;-82
2022/04/13 01:11:15;;;;;;;;;;;;;;;-144.19;87.27;76138.31;5012388;28;19925;-83
2022/04/13 01:13:42;;;;;;;;;;;;;;;-144.19;88.29;76144.22;5006991;28;19929;-82
2022/04/13 01:16:08;;;;;;;;;;;;;;;-144.19;89.89;76161.94;5033083;28;19926;-82
2022/04/13 01:18:35;;;;;;;;;;;;;;;-144.19;88.51;76161.94;5033108;28;20315;-82
2022/04/13 01:21:01;;;;;;;;;;;;;;;-144.19;88.38;76154.06;5031741;28;19925;-82
2022/04/13 01:23:27;;;;;;;;;;;;;;;-144.19;88.31;76158.00;5031047;28;19943;-82
2022/04/13 01:25:54;;;;;;;;;;;;;;;-144.19;86.98;76150.13;5014450;28;19925;-82
2022/04/13 01:28:21;;;;;;;;;;;;;;;-144.19;83.67;76083.22;5014804;28;19933;-82
2022/04/13 01:30:54;;;;;;;;;;;;;;;-144.19;84.20;76098.97;5032424;28;19925;-82
2022/04/13 01:33:20;;;;;;;;;;;;;;;-144.19;84.36;76102.91;5012821;28;19951;-82
2022/04/13 01:35:46;;;;;;;;;;;;;;;-144.19;84.67;76110.75;5016509;28;19932;-82
2022/04/13 01:38:12;;;;;;;;;;;;;;;-144.19;84.76;76108.78;5013038;28;19933;-82
2022/04/13 01:40:39;;;;;;;;;;;;;;;-144.19;86.71;76134.38;5011754;28;19940;-82
2022/04/13 01:43:05;;;;;;;;;;;;;;;-144.19;87.75;76148.16;5014944;28;20305;-81
2022/04/13 01:45:31;;;;;;;;;;;;;;;-144.19;88.30;76150.13;5015175;28;20024;-82
2022/04/13 01:47:58;;;;;;;;;;;;;;;-144.19;92.21;76173.75;5016438;28;20438;-82
2022/04/13 01:50:24;;;;;;;;;;;;;;;-144.19;93.42;76185.56;5015134;28;19936;-81
2022/04/13 01:52:50;;;;;;;;;;;;;;;-144.19;91.31;76177.69;5015337;28;19933;-82
2022/04/13 01:55:17;;;;;;;;;;;;;;;-144.19;92.71;76187.53;5032263;28;19932;-82
2022/04/13 01:57:43;;;;;;;;;;;;;;;-144.19;94.74;76201.31;5017473;28;19929;-82
2022/04/13 02:00:11;;;;;;;;;;;;;;;-144.19;92.04;76181.63;5017522;28;19940;-82
2022/04/13 02:02:37;;;;;;;;;;;;;;;-144.19;91.02;76177.69;5016908;28;19925;-82
2022/04/13 02:05:04;;;;;;;;;;;;;;;-144.19;93.23;76191.47;5034100;28;19925;-81
2022/04/13 02:07:31;;;;;;;;;;;;;;;-144.19;95.61;76209.19;5034858;28;19925;-83
2022/04/13 02:09:57;;;;;;;;;;;;;;;-144.19;96.56;76213.13;5035042;28;20391;-82
2022/04/13 02:12:23;;;;;;;;;;;;;;;-144.19;96.99;76219.00;5034925;28;19979;-82
2022/04/13 02:14:50;;;;;;;;;;;;;;;-144.19;97.63;76224.91;5033748;28;19936;-82
2022/04/13 02:17:16;;;;;;;;;;;;;;;-144.19;98.20;76228.84;5035582;28;19925;-82
2022/04/13 02:19:43;;;;;;;;;;;;;;;-144.19;97.29;76228.84;5034840;28;19932;-82
2022/04/13 02:22:10;;;;;;;;;;;;;;;-144.19;96.45;76220.97;5033889;28;19926;-82
2022/04/13 02:25:00;;;;;;;;;;;;;;;-144.19;96.92;76230.81;5033676;28;19925;-82
2022/04/13 02:27:27;;;;;;;;;;;;;;;-144.19;98.91;76244.59;5033367;28;19933;-81
2022/04/13 02:29:53;;;;;;;;;;;;;;;-144.19;100.00;76264.28;5034830;28;19925;-82
2022/04/13 02:32:19;;;;;;;;;;;;;;;-144.19;100.00;76260.34;5032253;28;20402;-82
2022/04/13 02:34:48;;;;;;;;;;;;;;;-144.19;96.74;76232.78;5024688;28;19992;-82
2022/04/13 02:37:15;;;;;;;;;;;;;;;-144.19;98.70;76252.47;4997460;28;19932;-82
2022/04/13 02:39:41;;;;;;;;;;;;;;;-144.19;100.00;76272.16;5014759;28;19925;-81
2022/04/13 02:42:07;;;;;;;;;;;;;;;-144.19;100.00;76283.97;5013642;28;19926;-82
2022/04/13 02:44:34;;;;;;;;;;;;;;;-144.19;100.00;76268.22;5017059;28;19925;-82
2022/04/13 02:47:00;;;;;;;;;;;;;;;-144.19;100.00;76293.81;5016743;28;19941;-82
2022/04/13 02:49:27;;;;;;;;;;;;;;;-144.19;100.00;76323.34;5016094;28;19933;-81
2022/04/13 02:51:53;;;;;;;;;;;;;;;-144.19;100.00;76341.06;5033753;28;19948;-82
2022/04/13 02:54:19;;;;;;;;;;;;;;;-144.19;100.00;76358.75;5031504;28;20309;-82
2022/04/13 02:56:46;;;;;;;;;;;;;;;-144.19;100.00;76335.16;5016461;28;19941;-82
2022/04/13 02:59:12;;;;;;;;;;;;;;;-144.19;100.00;76329.25;5016025;28;19933;-82
2022/04/13 03:01:38;;;;;;;;;;;;;;;-144.19;100.00;76370.56;5033189;28;19925;-81
2022/04/13 03:04:05;;;;;;;;;;;;;;;-144.19;100.00;76372.53;5029981;28;20521;-82
2022/04/13 03:06:31;;;;;;;;;;;;;;;-144.19;100.00;76380.41;5033790;28;19925;-81
2022/04/13 03:08:58;;;;;;;;;;;;;;;-144.19;100.00;76376.47;5033489;28;19980;-81
2022/04/13 03:11:24;;;;;;;;;;;;;;;-144.19;100.00;76378.44;5033076;28;20368;-81
2022/04/13 03:13:50;;;;;;;;;;;;;;;-144.19;100.00;76374.50;5031284;28;19929;-81
2022/04/13 03:16:17;;;;;;;;;;;;;;;-144.19;100.00;76366.63;5031981;28;19931;-82
2022/04/13 03:18:43;;;;;;;;;;;;;;;-144.19;100.00;76362.69;5033615;28;19936;-82
2022/04/13 03:21:09;;;;;;;;;;;;;;;-144.19;100.00;76370.56;5015011;28;19936;-83
2022/04/13 03:23:36;;;;;;;;;;;;;;;-144.19;100.00;76360.72;5030670;28;19963;-81
2022/04/13 03:26:02;;;;;;;;;;;;;;;-144.19;100.00;76370.56;5033246;28;19925;-81
2022/04/13 03:28:28;;;;;;;;;;;;;;;-144.19;100.00;76356.78;5032599;28;20307;-82
2022/04/13 03:30:54;;;;;;;;;;;;;;;-144.19;100.00;76343.03;5032840;28;20108;-81
2022/04/13 03:33:21;;;;;;;;;;;;;;;-144.19;100.00;76358.75;5031256;28;20398;-82
2022/04/13 03:35:47;;;;;;;;;;;;;;;-144.19;100.00;76354.81;5016041;28;19925;-81
2022/04/13 03:38:13;;;;;;;;;;;;;;;-144.19;100.00;76366.63;4995334;28;19932;-82
2022/04/13 03:40:40;;;;;;;;;;;;;;;-144.19;100.00;76372.53;4994869;28;19933;-82
2022/04/13 03:43:06;;;;;;;;;;;;;;;-144.19;100.00;76362.69;4993995;28;19932;-81
2022/04/13 03:45:32;;;;;;;;;;;;;;;-144.19;100.00;76370.56;5012078;28;19925;-82
2022/04/13 03:47:58;;;;;;;;;;;;;;;-144.19;100.00;76380.41;5012725;28;19925;-82
2022/04/13 03:50:25;;;;;;;;;;;;;;;-144.19;100.00;76406.00;5012256;28;19932;-84
2022/04/13 03:52:51;;;;;;;;;;;;;;;-144.19;100.00;76409.94;5011709;28;19936;-83
2022/04/13 03:55:22;;;;;;;;;;;;;;;-144.19;100.00;76415.84;5011364;28;19926;-81
2022/04/13 03:57:51;;;;;;;;;;;;;;;-144.19;100.00;76421.75;5012465;28;19932;-81
2022/04/13 04:00:17;;;;;;;;;;;;;;;-144.19;100.00;76437.50;4994924;28;19937;-81
2022/04/13 04:02:44;;;;;;;;;;;;;;;-144.19;100.00;76445.38;5013862;28;20344;-81
2022/04/13 04:05:11;;;;;;;;;;;;;;;-144.19;100.00;76445.38;4990768;28;19929;-81
2022/04/13 04:07:38;;;;;;;;;;;;;;;-144.19;100.00;76457.19;5009699;28;19933;-81
2022/04/13 04:10:04;;;;;;;;;;;;;;;-144.19;100.00;76476.88;5008155;28;19925;-81
2022/04/13 04:12:49;;;;;;;;;;;;;;;-144.19;100.00;76492.63;5004821;28;19925;-82
2022/04/13 04:15:16;;;;;;;;;;;;;;;-144.19;100.00;76539.84;5020214;28;19960;-82
2022/04/13 04:17:42;;;;;;;;;;;;;;;-144.19;100.00;76555.59;5003542;28;19929;-81
2022/04/13 04:20:09;;;;;;;;;;;;;;;-144.19;100.00;76559.53;5020177;28;19925;-81
2022/04/13 04:22:35;;;;;;;;;;;;;;;-144.19;100.00;76567.41;5021928;28;19925;-81
2022/04/13 04:25:02;;;;;;;;;;;;;;;-144.19;100.00;76581.19;5004927;28;19929;-81
2022/04/13 04:27:29;;;;;;;;;;;;;;;-144.19;100.00;76575.28;5000407;28;20356;-81
2022/04/13 04:29:55;;;;;;;;;;;;;;;-144.19;100.00;76551.66;5011748;28;19952;-82
2022/04/13 04:32:21;;;;;;;;;;;;;;;-144.19;100.00;76539.84;5012339;28;20403;-82
2022/04/13 04:34:48;;;;;;;;;;;;;;;-144.19;100.00;76524.09;5019874;28;19929;-82
2022/04/13 04:37:14;;;;;;;;;;;;;;;-144.19;100.00;76547.72;5033720;28;20139;-82
2022/04/13 04:39:40;;;;;;;;;;;;;;;-144.19;100.00;76575.28;5032786;28;20411;-82
2022/04/13 04:42:07;;;;;;;;;;;;;;;-144.19;100.00;76600.88;5015048;28;19925;-81
2022/04/13 04:44:33;;;;;;;;;;;;;;;-144.19;100.00;76598.91;5030664;28;19999;-81
2022/04/13 04:46:59;;;;;;;;;;;;;;;-144.19;100.00;76624.50;5033161;28;19932;-82
2022/04/13 04:49:26;;;;;;;;;;;;;;;-144.19;100.00;76624.50;5013323;28;19936;-82
2022/04/13 04:51:55;;;;;;;;;;;;;;;-144.19;100.00;76614.66;5015871;28;19925;-81
2022/04/13 04:54:21;;;;;;;;;;;;;;;-144.19;100.00;76626.47;5012388;28;19935;-81
2022/04/13 04:56:48;;;;;;;;;;;;;;;-144.19;100.00;76614.66;5029967;28;19932;-81
2022/04/13 04:59:15;;;;;;;;;;;;;;;-144.19;100.00;76634.34;5019853;28;19933;-82
2022/04/13 05:01:42;;;;;;;;;;;;;;;-144.19;100.00;76646.16;5011562;28;19925;-81
2022/04/13 05:04:08;;;;;;;;;;;;;;;-144.19;100.00;76636.31;5026169;28;19925;-82
2022/04/13 05:06:35;;;;;;;;;;;;;;;-144.19;100.00;76644.19;5032168;28;20327;-81
2022/04/13 05:09:01;;;;;;;;;;;;;;;-144.19;100.00;76657.97;5031555;28;19937;-81
2022/04/13 05:11:27;;;;;;;;;;;;;;;-144.19;100.00;76681.56;5013979;28;19925;-82
2022/04/13 05:13:54;;;;;;;;;;;;;;;-144.19;100.00;76697.31;5010659;28;19945;-81
2022/04/13 05:16:20;;;;;;;;;;;;;;;-144.19;100.00;76669.78;5032245;28;20023;-82
2022/04/13 05:18:47;;;;;;;;;;;;;;;-144.19;100.00;76652.06;5030837;28;19936;-81
2022/04/13 05:21:14;;;;;;;;;;;;;;;-144.19;100.00;76644.19;5031289;28;19936;-82
2022/04/13 05:23:43;;;;;;;;;;;;;;;-144.19;100.00;76638.28;5011362;28;19929;-81
2022/04/13 05:26:10;;;;;;;;;;;;;;;-144.19;100.00;76628.44;5031358;28;19925;-82
2022/04/13 05:28:37;;;;;;;;;;;;;;;-144.19;100.00;76616.63;5014400;28;19925;-82
2022/04/13 05:31:03;;;;;;;;;;;;;;;-144.19;100.00;76618.59;5031065;28;20000;-82
2022/04/13 05:33:29;;;;;;;;;;;;;;;-144.19;100.00;76626.47;5029021;28;19929;-81
2022/04/13 05:35:56;;;;;;;;;;;;;;;-144.19;100.00;76614.66;5013836;28;19932;-82
2022/04/13 05:38:22;;;;;;;;;;;;;;;-144.19;100.00;76596.94;5012150;28;19926;-82
2022/04/13 05:40:48;;;;;;;;;;;;;;;-144.19;100.00;76555.59;5011467;28;19925;-82
2022/04/13 05:43:15;;;;;;;;;;;;;;;-144.19;100.00;76467.03;5010499;28;19947;-81
2022/04/13 05:45:41;;;;;;;;;;;;;;;-144.19;100.00;76467.03;5010828;28;19930;-82
2022/04/13 05:48:07;;;;;;;;;;;;;;;-144.19;100.00;76459.16;5011748;28;19926;-81
2022/04/13 05:50:33;;;;;;;;;;;;;;;-144.19;100.00;76433.56;5011232;28;19957;-82
2022/04/13 05:53:00;;;;;;;;;;;;;;;-144.19;100.00;76437.50;5010626;28;19933;-82
2022/04/13 05:55:27;;;;;;;;;;;;;;;-144.19;100.00;76421.75;5028215;28;19977;-82
2022/04/13 05:57:53;;;;;;;;;;;;;;;-144.19;100.00;76423.72;5031126;28;19926;-81
2022/04/13 06:00:19;;;;;;;;;;;;;;;-144.19;100.00;76415.84;5013088;28;19925;-82
2022/04/13 06:02:46;;;;;;;;;;;;;;;-144.19;100.00;76406.00;5012889;28;19925;-82
2022/04/13 06:05:12;;;;;;;;;;;;;;;-144.19;100.00;76396.16;5028418;28;20043;-83
2022/04/13 06:07:40;;;;;;;;;;;;;;;-144.19;100.00;76372.53;5013452;28;19961;-82
2022/04/13 06:10:06;;;;;;;;;;;;;;;-144.19;100.00;76366.63;5013044;28;20064;-82
2022/04/13 06:12:33;;;;;;;;;;;;;;;-144.19;100.00;76372.53;5029882;28;20302;-82
2022/04/13 06:15:06;;;;;;;;;;;;;;;-144.19;100.00;76366.63;5008374;28;20445;-83
2022/04/13 06:17:34;;;;;;;;;;;;;;;-144.19;100.00;76354.81;5030965;28;19986;-82
2022/04/13 06:20:00;;;;;;;;;;;;;;;-144.19;100.00;76350.88;5030650;28;19932;-83
2022/04/13 06:22:26;;;;;;;;;;;;;;;-144.19;100.00;76331.22;5012201;28;19929;-82
2022/04/13 06:24:53;;;;;;;;;;;;;;;-144.19;100.00;76325.31;5028583;28;19925;-82
2022/04/13 06:27:19;;;;;;;;;;;;;;;-144.19;100.00;76323.34;5031530;28;19940;-82
2022/04/13 06:29:46;;;;;;;;;;;;;;;-144.19;100.00;76317.44;5034350;28;20291;-81
2022/04/13 06:32:13;;;;;;;;;;;;;;;-144.19;100.00;76323.34;5032420;28;19925;-81
2022/04/13 06:34:39;;;;;;;;;;;;;;;-144.19;100.00;76335.16;5007196;28;19925;-82
2022/04/13 06:37:05;;;;;;;;;;;;;;;-144.19;100.00;76335.16;4997560;28;19926;-81
2022/04/13 06:39:32;;;;;;;;;;;;;;;-144.19;100.00;76339.09;4993584;28;19930;-81
2022/04/13 06:41:58;;;;;;;;;;;;;;;-144.19;100.00;76337.13;4998652;28;19931;-82
2022/04/13 06:44:27;;;;;;;;;;;;;;;-144.19;100.00;76343.03;5020072;28;20071;-82
2022/04/13 06:47:08;;;;;;;;;;;;;;;-144.19;100.00;76339.09;5028883;28;19931;-82
2022/04/13 06:49:49;;;;;;;;;;;;;;;-144.19;100.00;76327.28;5024725;28;19932;-82
2022/04/13 06:52:37;;;;;;;;;;;;;;;-144.19;100.00;76317.44;5022206;28;20363;-82
2022/04/13 06:55:04;;;;;;;;;;;;;;;-144.19;100.00;76305.63;5015499;28;19932;-83
2022/04/13 06:57:35;;;;;;;;;;;;;;;-144.19;100.00;76303.66;5012963;28;20459;-82
2022/04/13 07:00:02;;;;;;;;;;;;;;;-144.19;100.00;76287.91;5022513;28;19935;-82
2022/04/13 07:02:28;;;;;;;;;;;;;;;-144.19;100.00;76295.78;5022813;28;19933;-83
2022/04/13 07:04:55;;;;;;;;;;;;;;;-144.19;100.00;76264.28;5032493;22;19925;-80
2022/04/13 07:07:21;;;;;;;;;;;;;;;-144.19;100.00;76260.34;5013834;28;19925;-80
2022/04/13 07:09:48;;;;;;;;;;;;;;;-144.19;100.00;76260.34;5025953;28;19929;-80
2022/04/13 07:12:14;;;;;;;;;;;;;;;-144.19;100.00;76236.72;5007581;28;20029;-81
2022/04/13 07:14:41;;;;;;;;;;;;;;;-144.19;100.00;76217.03;5020233;28;19933;-80
2022/04/13 07:17:08;;;;;;;;;;;;;;;-144.19;100.00;76213.13;5005334;28;19933;-80
2022/04/13 07:19:35;;;;;;;;;;;;;;;-144.19;100.00;76201.31;5021795;28;19930;-80
2022/04/13 07:22:01;;;;;;;;;;;;;;;-144.19;100.00;76209.19;5022530;28;19925;-80
2022/04/13 07:24:35;;;;;;;;;;;;;;;-144.19;100.00;76213.13;5009185;28;19929;-79
2022/04/13 07:27:01;;;;;;;;;;;;;;;-144.19;100.00;76193.44;5005304;28;20387;-80
2022/04/13 07:29:27;;;;;;;;;;;;;;;-144.19;100.00;76201.31;5024708;28;20015;-80
2022/04/13 07:31:54;;;;;;;;;;;;;;;-144.19;100.00;76171.78;5022898;28;19934;-79
2022/04/13 07:34:20;;;;;;;;;;;;;;;-144.19;100.00;76177.69;5003511;28;19932;-83
2022/04/13 07:36:46;;;;;;;;;;;;;;;-144.19;100.00;76185.56;5011596;28;19926;-79
2022/04/13 07:39:13;;;;;;;;;;;;;;;-144.19;100.00;76189.50;5013239;28;20726;-83
2022/04/13 07:41:39;;;;;;;;;;;;;;;-144.19;100.00;76175.72;5014548;28;19925;-82
2022/04/13 07:44:06;;;;;;;;;;;;;;;-144.19;100.00;76189.50;5024282;28;19926;-80
2022/04/13 07:46:32;;;;;;;;;;;;;;;-144.19;100.00;76201.31;5013386;28;19925;-81
2022/04/13 07:48:58;;;;;;;;;;;;;;;-144.19;100.00;76217.03;5018396;28;19925;-82
2022/04/13 07:51:25;;;;;;;;;;;;;;;-144.19;100.00;76171.78;5016019;28;19941;-81
2022/04/13 07:53:51;;;;;;;;;;;;;;;-144.19;100.00;76169.81;5020426;28;20320;-83
2022/04/13 07:56:17;;;;;;;;;;;;;;;-144.19;100.00;76185.56;5012218;28;19929;-81
2022/04/13 07:58:44;;;;;;;;;;;;;;;-144.19;100.00;76173.75;5021816;28;20368;-83
2022/04/13 08:01:10;;;;;;;;;;;;;;;-144.19;100.00;76175.72;5033735;28;19925;-81
2022/04/13 08:03:36;;;;;;;;;;;;;;;-144.19;100.00;76138.31;5050208;28;19929;-81
2022/04/13 08:06:03;;;;;;;;;;;;;;;-144.19;100.00;76148.16;5047932;28;19940;-82
2022/04/13 08:08:29;;;;;;;;;;;;;;;-144.19;100.00;76116.66;5021772;28;19925;-81
2022/04/13 08:10:56;;;;;;;;;;;;;;;-144.19;100.00;76114.69;5014622;28;20296;-81
2022/04/13 08:13:22;;;;;;;;;;;;;;;-144.19;100.00;76104.84;5018349;28;19929;-82
2022/04/13 08:16:08;;;;;;;;;;;;;;;-144.19;100.00;76079.28;5021600;28;19929;-81
2022/04/13 08:18:37;;;;;;;;;;;;;;;-144.19;100.00;76079.28;5018994;28;20117;-80
2022/04/13 08:21:04;;;;;;;;;;;;;;;-144.19;100.00;76075.34;5021023;28;19944;-80
2022/04/13 08:23:30;;;;;;;;;;;;;;;-144.19;100.00;76071.41;5018756;28;19929;-81
2022/04/13 08:25:56;;;;;;;;;;;;;;;-144.19;100.00;76067.47;5025363;28;19959;-79
2022/04/13 08:28:23;;;;;;;;;;;;;;;-144.19;100.00;76051.72;5017011;28;19929;-80
2022/04/13 08:30:49;;;;;;;;;;;;;;;-144.19;100.00;76061.56;5022172;28;20511;-79
2022/04/13 08:33:15;;;;;;;;;;;;;;;-144.19;100.00;76035.97;5006355;28;20326;-79
2022/04/13 08:35:42;;;;;;;;;;;;;;;-144.19;100.00;76034.00;5001832;28;19936;-81
2022/04/13 08:38:08;;;;;;;;;;;;;;;-144.19;100.00;76041.88;5018798;28;20408;-82
2022/04/13 08:40:38;;;;;;;;;;;;;;;-144.19;100.00;76012.34;5011501;28;19929;-81
2022/04/13 08:43:08;;;;;;;;;;;;;;;-144.19;100.00;76010.38;5004658;28;19933;-80
2022/04/13 08:45:38;;;;;;;;;;;;;;;-144.19;100.00;75984.81;5009172;28;19925;-83
2022/04/13 08:48:05;;;;;;;;;;;;;;;-144.19;100.00;75967.09;5011249;28;19972;-80
2022/04/13 08:50:31;;;;;;;;;;;;;;;-144.19;100.00;75937.56;5016617;28;20403;-82
2022/04/13 08:53:04;;;;;;;;;;;;;;;-144.19;100.00;75925.75;5029259;28;19931;-82
2022/04/13 08:55:31;;;;;;;;;;;;;;;-144.19;100.00;75929.69;5009184;28;20011;-84
2022/04/13 08:58:13;;;;;;;;;;;;;;;-144.19;100.00;75886.41;4993942;28;20468;-80
2022/04/13 09:00:41;;;;;;;;;;;;;;;-144.19;100.00;75878.53;5032234;28;19924;-80
2022/04/13 09:03:26;;;;;;;;;;;;;;;-144.19;100.00;75868.69;5030140;28;19944;-81
2022/04/13 09:05:55;;;;;;;;;;;;;;;-144.19;100.00;75831.28;5024632;28;19948;-81
2022/04/13 09:08:22;;;;;;;;;;;;;;;-144.19;100.00;75860.81;5018115;28;19935;-83
2022/04/13 09:10:52;;;;;;;;;;;;;;;-144.19;100.00;75827.34;5018887;28;19926;-83
2022/04/13 09:13:20;;;;;;;;;;;;;;;-144.19;100.00;75843.09;5000591;28;19925;-82
2022/04/13 09:15:46;;;;;;;;;;;;;;;-144.19;99.54;75837.19;5003172;28;19937;-80
2022/04/13 09:18:15;;;;;;;;;;;;;;;-144.19;100.00;75803.75;5019230;28;20457;-79
2022/04/13 09:20:41;;;;;;;;;;;;;;;-144.19;100.00;75784.06;4998425;28;20405;-80
2022/04/13 09:23:07;;;;;;;;;;;;;;;-144.19;95.37;75811.63;5020020;28;19935;-83
2022/04/13 09:25:34;;;;;;;;;;;;;;;-144.19;95.19;75797.84;5020422;28;19929;-81
2022/04/13 09:28:01;;;;;;;;;;;;;;;-144.19;97.97;75780.13;5021022;28;19925;-84
2022/04/13 09:30:30;;;;;;;;;;;;;;;-144.19;99.99;75784.06;5015862;28;20108;-83
2022/04/13 09:32:57;;;;;;;;;;;;;;;-144.19;100.00;75776.19;5033411;28;19931;-81
2022/04/13 09:35:23;;;;;;;;;;;;;;;-144.19;98.83;75782.09;5027786;28;19935;-81
2022/04/13 09:37:51;;;;;;;;;;;;;;;-144.19;98.72;75762.41;5023444;28;19929;-79
2022/04/13 09:40:31;;;;;;;;;;;;;;;-144.19;100.00;75732.88;5021918;28;19926;-80
2022/04/13 09:43:07;;;;;;;;;;;;;;;-144.19;100.00;75721.09;5004055;28;20362;-79
2022/04/13 09:45:35;;;;;;;;;;;;;;;-144.19;95.29;75719.13;5024277;28;20389;-83
2022/04/13 09:48:05;;;;;;;;;;;;;;;-144.19;97.81;75701.41;5022131;28;19925;-83
2022/04/13 09:50:32;;;;;;;;;;;;;;;-144.19;98.46;75689.59;5024565;28;19925;-83
2022/04/13 09:53:03;;;;;;;;;;;;;;;-144.19;93.92;75650.22;5022556;28;19929;-82
2022/04/13 09:55:30;;;;;;;;;;;;;;;-144.19;100.00;75630.56;5021673;28;19926;-81
2022/04/13 09:58:22;;;;;;;;;;;;;;;-144.19;96.00;75630.56;5023289;28;19935;-84
2022/04/13 10:00:50;;;;;;;;;;;;;;;-144.19;94.14;75681.72;5024446;28;19931;-84
2022/04/13 10:03:17;;;;;;;;;;;;;;;-144.19;93.00;75624.66;5020771;28;19984;-83
2022/04/13 10:05:49;;;;;;;;;;;;;;;-144.19;96.47;75597.09;5025159;28;20304;-81
2022/04/13 10:08:15;;;;;;;;;;;;;;;-144.19;92.92;75634.50;5025037;28;19933;-84
2022/04/13 10:10:43;;;;;;;;;;;;;;;-144.19;88.96;75660.06;5020960;28;19926;-80
2022/04/13 10:13:10;;;;;;;;;;;;;;;-144.19;90.58;75563.66;5017155;28;20439;-84
2022/04/13 10:15:37;;;;;;;;;;;;;;;-144.19;86.32;75595.13;5022390;28;20019;-85
2022/04/13 10:18:05;;;;;;;;;;;;;;;-144.19;94.23;75557.75;5016004;28;19929;-81
2022/04/13 10:20:42;;;;;;;;;;;;;;;-144.19;88.91;75540.03;5014919;28;20008;-82
2022/04/13 10:23:08;;;;;;;;;;;;;;;-144.19;97.35;75486.91;5016346;28;20406;-79
2022/04/13 10:25:34;;;;;;;;;;;;;;;-144.19;84.56;75526.25;5015131;28;19935;-81
2022/04/13 10:28:01;;;;;;;;;;;;;;;-144.19;90.94;75473.13;5023634;28;20323;-81
2022/04/13 10:30:30;;;;;;;;;;;;;;;-144.19;83.21;75453.44;5024072;28;20020;-80
2022/04/13 10:33:01;;;;;;;;;;;;;;;-144.19;81.84;75494.78;5004139;28;19933;-82
2022/04/13 10:35:28;;;;;;;;;;;;;;;-144.19;84.62;75467.22;5025271;28;19925;-83
2022/04/13 10:37:55;;;;;;;;;;;;;;;-144.19;86.55;75408.19;5010689;28;19931;-78
2022/04/13 10:40:23;;;;;;;;;;;;;;;-144.19;88.13;75362.91;5006598;28;20529;-82
2022/04/13 10:42:51;;;;;;;;;;;;;;;-144.19;80.49;75347.19;5020412;28;19955;-82
2022/04/13 10:45:17;;;;;;;;;;;;;;;-144.19;79.66;75386.53;5020115;28;19925;-83
2022/04/13 10:47:44;;;;;;;;;;;;;;;-144.19;82.08;75406.22;5019773;28;19929;-83
2022/04/13 10:50:12;;;;;;;;;;;;;;;-144.19;78.84;75327.50;5005484;28;19925;-84
2022/04/13 10:52:56;;;;;;;;;;;;;;;-144.19;87.69;75284.22;5022628;28;19925;-82
2022/04/13 10:55:22;;;;;;;;;;;;;;;-144.19;80.81;75260.59;5029387;28;19925;-84
2022/04/13 10:57:52;;;;;;;;;;;;;;;-144.19;79.55;75240.91;5004956;28;19932;-83
2022/04/13 11:00:19;;;;;;;;;;;;;;;-144.19;75.01;75229.13;5026672;28;19924;-84
2022/04/13 11:03:04;;;;;;;;;;;;;;;-144.19;74.00;75301.91;5024054;28;19936;-82
2022/04/13 11:05:32;;;;;;;;;;;;;;;-144.19;83.43;75250.75;5024416;28;19929;-84
2022/04/13 11:08:08;;;;;;;;;;;;;;;-144.19;75.17;75280.28;5006374;28;19933;-83
2022/04/13 11:10:35;;;;;;;;;;;;;;;-144.19;74.97;75252.72;5023203;28;20738;-82
2022/04/13 11:13:01;;;;;;;;;;;;;;;-144.19;75.70;75134.66;5005628;28;19933;-83
2022/04/13 11:15:39;;;;;;;;;;;;;;;-144.19;73.94;75177.94;5031228;28;19929;-82
2022/04/13 11:18:10;;;;;;;;;;;;;;;-144.19;73.30;75166.16;5027038;28;19936;-81
2022/04/13 11:20:36;;;;;;;;;;;;;;;-144.19;78.52;75378.66;5016456;28;19939;-83
2022/04/13 11:23:05;;;;;;;;;;;;;;;-144.19;79.90;75256.66;5032173;28;20302;-82
2022/04/13 11:25:45;;;;;;;;;;;;;;;-144.19;78.98;75305.84;5006260;28;19925;-81
2022/04/13 11:28:21;;;;;;;;;;;;;;;-144.19;79.52;75290.13;5023879;28;19929;-82
2022/04/13 11:31:00;;;;;;;;;;;;;;;-144.19;77.08;75244.84;5023370;28;19934;-82
2022/04/13 11:33:56;;;;;;;;;;;;;;;-144.19;76.66;75307.81;5022811;28;19948;-83
2022/04/13 11:36:24;;;;;;;;;;;;;;;-144.19;74.64;75280.28;4995313;28;19925;-85
2022/04/13 11:39:11;;;;;;;;;;;;;;;-144.19;74.77;75240.91;5023218;28;19929;-81
2022/04/13 11:41:48;;;;;;;;;;;;;;;-144.19;74.70;75181.88;5023079;28;19929;-80
2022/04/13 11:44:15;;;;;;;;;;;;;;;-144.19;74.72;75335.38;5034380;28;19925;-83
2022/04/13 11:46:43;;;;;;;;;;;;;;;-144.19;77.97;75311.75;5024413;28;19965;-81
2022/04/13 11:49:10;;;;;;;;;;;;;;;-144.19;76.12;75256.66;4998387;28;19933;-82
2022/04/13 11:51:37;;;;;;;;;;;;;;;-144.19;82.46;75276.34;5012951;28;19925;-82
2022/04/13 11:54:10;;;;;;;;;;;;;;;-144.19;78.45;75366.84;5021801;28;19926;-80
2022/04/13 11:56:37;;;;;;;;;;;;;;;-144.19;74.60;75313.72;5022973;28;20489;-83
2022/04/13 11:59:04;;;;;;;;;;;;;;;-144.19;76.32;75274.38;5014095;28;19925;-84
2022/04/13 12:01:33;;;;;;;;;;;;;;;-144.19;73.71;75276.34;5043364;28;19971;-84
2022/04/13 12:04:03;;;;;;;;;;;;;;;-144.19;74.94;75244.84;5022043;28;19941;-81
2022/04/13 12:06:30;;;;;;;;;;;;;;;-144.19;75.62;75343.25;5024312;28;19926;-82
2022/04/13 12:08:58;;;;;;;;;;;;;;;-144.19;77.85;75370.78;5023842;28;19951;-82
2022/04/13 12:11:36;;;;;;;;;;;;;;;-144.19;77.79;75372.75;5024871;28;19925;-83
2022/04/13 12:14:03;;;;;;;;;;;;;;;-144.19;77.98;75445.56;5012336;28;19926;-81
2022/04/13 12:16:30;;;;;;;;;;;;;;;-144.19;81.34;75276.34;5013191;28;19926;-81
2022/04/13 12:19:01;;;;;;;;;;;;;;;-144.19;75.00;75339.31;5012910;28;19926;-82
2022/04/13 12:21:29;;;;;;;;;;;;;;;-144.19;78.38;75339.31;5013910;28;20421;-81
2022/04/13 12:23:56;;;;;;;;;;;;;;;-144.19;75.86;75280.28;5023194;28;19929;-80
2022/04/13 12:26:33;;;;;;;;;;;;;;;-144.19;73.89;75280.28;5032355;28;20004;-82